Deep River, Iowa
Current Conditions -  °F | °C
As of 4:15 AM on Tuesday 27 Jan 2015 (Local Time) from KGGI Reporting Station
Clear Clear  
Wind Chill: 23°   Ceiling: Unl
Heat Index: 30°   Visibility: 10mi
Dew Point: 28°   Wind: 7mph
Humidity: 94%   Direction: 320°NW
Pressure: 30.04"   Gusts: NA
Location:  41.58°N, 92.37°W
Report Text: KGGI 271015Z AUTO 32006KT 10SM CLR M01/M02 A3004 RMK AO2 T10111020
Loading
Personal Weather Stations






























Interactive Weather Map New forecast layout! Learn more

10-Day Weather Forecast

Advertisements
Track Severe Weather on mobile